createdAt,value
2018-09-05T00:00:55.960Z,101964.09
2018-09-05T00:03:23.675Z,101960.12
2018-09-05T00:05:51.483Z,101966.23
2018-09-05T00:08:19.250Z,101971.48
2018-09-05T00:10:47.024Z,101974.92
2018-09-05T00:13:14.776Z,101976.19
2018-09-05T00:15:42.487Z,101981.49
2018-09-05T00:18:10.172Z,101972.16
2018-09-05T00:20:37.868Z,101976.49
2018-09-05T00:23:05.589Z,101979.08
2018-09-05T00:25:33.429Z,101972.87
2018-09-05T00:28:01.100Z,101974.20
2018-09-05T00:30:28.800Z,101972.36
2018-09-05T00:32:56.532Z,101975.80
2018-09-05T00:35:24.257Z,101977.97
2018-09-05T00:37:51.943Z,101980.56
2018-09-05T00:40:19.872Z,101977.81
2018-09-05T00:42:47.984Z,101980.08
2018-09-05T00:45:15.701Z,101980.53
2018-09-05T00:47:43.498Z,101981.86
2018-09-05T00:50:11.188Z,101984.06
2018-09-05T00:52:38.940Z,101988.05
2018-09-05T00:55:06.677Z,101990.54
2018-09-05T00:57:34.389Z,101987.86
2018-09-05T01:00:02.198Z,101993.20
2018-09-05T01:02:30.005Z,101998.59
2018-09-05T01:04:57.744Z,101989.37
2018-09-05T01:07:26.750Z,101991.62
2018-09-05T01:09:54.486Z,101997.56
2018-09-05T01:12:23.160Z,101999.06
2018-09-05T01:14:52.429Z,101995.63
2018-09-05T01:17:20.543Z,101991.88
2018-09-05T01:19:48.242Z,101997.44
2018-09-05T01:22:15.932Z,101852.35
2018-09-05T01:24:43.657Z,101986.95
2018-09-05T01:27:11.869Z,101993.03
2018-09-05T01:29:40.296Z,101998.94
2018-09-05T01:32:09.107Z,101997.45
2018-09-05T01:34:37.280Z,101998.94
2018-09-05T01:37:05.104Z,101997.87
2018-09-05T01:39:32.796Z,101999.42
2018-09-05T01:42:00.500Z,102004.09
2018-09-05T01:44:28.180Z,101997.77
2018-09-05T01:46:55.851Z,101998.41
2018-09-05T01:49:23.644Z,101994.23
2018-09-05T01:51:55.429Z,101993.89
2018-09-05T01:54:23.169Z,101996.38
2018-09-05T01:56:51.279Z,102002.69
2018-09-05T01:59:18.969Z,102008.11
2018-09-05T02:01:47.292Z,102008.27
2018-09-05T02:04:15.008Z,102009.33
2018-09-05T02:06:42.737Z,102012.12
2018-09-05T02:09:12.088Z,102008.63
2018-09-05T02:11:39.796Z,102012.66
2018-09-05T02:14:07.483Z,102007.05
2018-09-05T02:16:35.300Z,102004.11
2018-09-05T02:19:09.612Z,102002.98
2018-09-05T02:21:37.393Z,102012.39
2018-09-05T02:24:05.261Z,102011.70
2018-09-05T02:26:33.080Z,102016.66
2018-09-05T02:29:00.848Z,102013.66
2018-09-05T02:31:28.900Z,102019.91
2018-09-05T02:33:56.615Z,102015.08
2018-09-05T02:36:24.339Z,102016.91
2018-09-05T02:38:52.071Z,102020.53
2018-09-05T02:41:19.845Z,102016.23
2018-09-05T02:43:53.008Z,102015.47
2018-09-05T02:46:20.737Z,102021.83
2018-09-05T02:48:48.423Z,102020.13
2018-09-05T02:51:16.144Z,102017.59
2018-09-05T02:53:43.828Z,102015.48
2018-09-05T02:56:11.505Z,102022.19
2018-09-05T02:58:39.195Z,102017.00
2018-09-05T03:01:06.878Z,102023.21
2018-09-05T03:03:34.548Z,102017.58
2018-09-05T03:06:02.251Z,102017.19
2018-09-05T03:08:29.941Z,102012.40
2018-09-05T03:10:57.672Z,102013.36
2018-09-05T03:13:25.371Z,102012.09
2018-09-05T03:15:53.060Z,102014.78
2018-09-05T03:18:20.778Z,102018.34
2018-09-05T03:20:48.479Z,102021.94
2018-09-05T03:23:16.194Z,102023.78
2018-09-05T03:25:43.916Z,102022.06
2018-09-05T03:28:11.620Z,102033.52
2018-09-05T03:30:39.944Z,102034.00
2018-09-05T03:33:07.925Z,102029.17
2018-09-05T03:35:35.708Z,102032.32
2018-09-05T03:38:03.624Z,102027.09
2018-09-05T03:40:31.309Z,102029.33
2018-09-05T03:42:59.074Z,102034.19
2018-09-05T03:45:26.794Z,102035.07
2018-09-05T03:47:54.477Z,102034.19
2018-09-05T03:50:22.177Z,102025.41
2018-09-05T03:52:49.859Z,102032.88
2018-09-05T03:55:17.576Z,102034.59
2018-09-05T03:57:45.248Z,102036.39
2018-09-05T04:00:13.153Z,102038.08
2018-09-05T04:02:40.842Z,102038.52
2018-09-05T04:05:08.671Z,102037.23
2018-09-05T04:07:36.379Z,102034.16
2018-09-05T04:10:04.184Z,102039.86
2018-09-05T04:12:36.376Z,102038.52
2018-09-05T04:15:04.488Z,102042.43
2018-09-05T04:17:32.173Z,102044.14
2018-09-05T04:19:59.895Z,102044.95
2018-09-05T04:22:27.620Z,102040.95
2018-09-05T04:24:55.292Z,102044.83
2018-09-05T04:27:23.041Z,102046.07
2018-09-05T04:29:50.734Z,102052.14
2018-09-05T04:32:18.436Z,102048.53
2018-09-05T04:34:46.153Z,102050.16
2018-09-05T04:37:13.842Z,102050.42
2018-09-05T04:39:41.564Z,102049.00
2018-09-05T04:42:09.272Z,102051.02
2018-09-05T04:44:36.959Z,102050.77
2018-09-05T04:47:04.664Z,102061.47
2018-09-05T04:49:32.406Z,102057.56
2018-09-05T04:52:00.118Z,102060.25
2018-09-05T04:54:27.797Z,102070.39
2018-09-05T04:56:55.482Z,102059.26
2018-09-05T04:59:23.220Z,102061.58
2018-09-05T05:01:50.909Z,102057.84
2018-09-05T05:04:18.605Z,102060.94
2018-09-05T05:06:46.350Z,102055.70
2018-09-05T05:09:14.017Z,102052.80
2018-09-05T05:11:41.716Z,102058.42
2018-09-05T05:14:09.997Z,102056.84
2018-09-05T05:16:37.682Z,102063.00
2018-09-05T05:19:05.452Z,102053.65
2018-09-05T05:21:33.224Z,102056.77
2018-09-05T05:24:00.937Z,102058.33
2018-09-05T05:26:28.948Z,102067.39
2018-09-05T05:28:56.721Z,102070.48
2018-09-05T05:31:24.489Z,102062.92
2018-09-05T05:33:52.193Z,102061.35
2018-09-05T05:36:19.942Z,102058.80
2018-09-05T05:38:47.660Z,102055.73
2018-09-05T05:41:15.624Z,102052.89
2018-09-05T05:43:43.450Z,102050.18
2018-09-05T05:46:11.167Z,102051.31
2018-09-05T05:48:38.988Z,102056.66
2018-09-05T05:51:06.923Z,102046.97
2018-09-05T05:53:34.718Z,102047.54
2018-09-05T05:56:02.531Z,102051.44
2018-09-05T05:58:30.532Z,102042.04
2018-09-05T06:00:58.309Z,102042.34
2018-09-05T06:03:26.227Z,101916.01
2018-09-05T06:05:54.098Z,102036.53
2018-09-05T06:08:21.863Z,102034.67
2018-09-05T06:10:49.569Z,102037.41
2018-09-05T06:13:17.249Z,102038.22
2018-09-05T06:15:44.960Z,102044.91
2018-09-05T06:18:12.755Z,102045.34
2018-09-05T06:20:40.436Z,102042.11
2018-09-05T06:23:08.136Z,102044.22
2018-09-05T06:25:35.903Z,102051.49
2018-09-05T06:28:03.608Z,102043.27
2018-09-05T06:30:31.700Z,102043.05
2018-09-05T06:32:59.348Z,102047.35
2018-09-05T06:35:27.117Z,102043.73
2018-09-05T06:37:54.803Z,102049.72
2018-09-05T06:40:22.644Z,102044.12
2018-09-05T06:42:50.319Z,102047.80
2018-09-05T06:45:18.017Z,102042.08
2018-09-05T06:47:45.714Z,102045.30
2018-09-05T06:50:13.426Z,102042.17
2018-09-05T06:52:41.164Z,102036.02
2018-09-05T06:55:08.908Z,102033.55
2018-09-05T06:57:36.693Z,102039.01
2018-09-05T07:00:54.620Z,102035.48
2018-09-05T07:03:22.890Z,102034.50
2018-09-05T07:05:50.666Z,102040.21
2018-09-05T07:08:18.364Z,102033.27
2018-09-05T07:10:46.159Z,102036.02
2018-09-05T07:13:13.880Z,102039.56
2018-09-05T07:15:41.581Z,102045.62
2018-09-05T07:18:09.332Z,102048.95
2018-09-05T07:20:37.084Z,102050.20
2018-09-05T07:23:04.832Z,102047.04
2018-09-05T07:25:32.532Z,102052.85
2018-09-05T07:28:00.269Z,102052.88
2018-09-05T07:30:28.083Z,102041.86
2018-09-05T07:32:55.699Z,102046.31
2018-09-05T07:35:23.397Z,102041.45
2018-09-05T07:37:51.155Z,102039.87
2018-09-05T07:40:18.987Z,102040.61
2018-09-05T07:42:46.659Z,102034.19
2018-09-05T07:45:14.459Z,102036.19
2018-09-05T07:47:42.178Z,102029.22
2018-09-05T07:50:09.903Z,102035.16
2018-09-05T07:52:37.659Z,102032.36
2018-09-05T07:55:05.548Z,102040.49
2018-09-05T07:57:33.268Z,102034.63
2018-09-05T08:00:01.002Z,102035.47
2018-09-05T08:02:28.708Z,102038.80
2018-09-05T08:04:56.440Z,102036.32
2018-09-05T08:07:24.176Z,102036.10
2018-09-05T08:09:51.851Z,102033.30
2018-09-05T08:12:19.567Z,102031.09
2018-09-05T08:14:47.308Z,102035.80
2018-09-05T08:17:15.008Z,102029.47
2018-09-05T08:19:42.720Z,102029.75
2018-09-05T08:22:10.449Z,102027.41
2018-09-05T08:24:38.386Z,102019.45
2018-09-05T08:27:06.108Z,102014.09
2018-09-05T08:29:33.800Z,102015.55
2018-09-05T08:32:01.552Z,102019.41
2018-09-05T08:34:29.308Z,102018.23
2018-09-05T08:36:57.266Z,102023.02
2018-09-05T08:39:24.784Z,102006.76
2018-09-05T08:41:52.581Z,102013.62
2018-09-05T08:44:20.481Z,102012.27
2018-09-05T08:46:48.114Z,102018.30
2018-09-05T08:49:15.833Z,102010.17
2018-09-05T08:51:43.516Z,102006.87
2018-09-05T08:54:11.236Z,102010.17
2018-09-05T08:56:38.974Z,102010.56
2018-09-05T08:59:06.749Z,102007.36
2018-09-05T09:01:35.307Z,102001.55
2018-09-05T09:04:03.025Z,102004.34
2018-09-05T09:06:30.769Z,101999.43
2018-09-05T09:08:58.456Z,101997.45
2018-09-05T09:11:26.233Z,102003.08
2018-09-05T09:13:53.943Z,102002.30
2018-09-05T09:16:21.653Z,102001.47
2018-09-05T09:18:49.471Z,102006.55
2018-09-05T09:21:17.243Z,102006.63
2018-09-05T09:23:44.982Z,102008.60
2018-09-05T09:26:12.691Z,102013.52
2018-09-05T09:28:40.446Z,102010.33
2018-09-05T09:31:08.172Z,102005.27
2018-09-05T09:33:35.895Z,102010.65
2018-09-05T09:36:03.659Z,102004.86
2018-09-05T09:38:31.386Z,102009.30
2018-09-05T09:40:59.080Z,102017.38
2018-09-05T09:43:26.829Z,102011.99
2018-09-05T09:45:54.537Z,102008.17
2018-09-05T09:48:22.239Z,102012.14
2018-09-05T09:50:50.006Z,102013.77
2018-09-05T09:53:17.699Z,102011.52
2018-09-05T09:55:45.449Z,102016.91
2018-09-05T09:58:13.208Z,102007.04
2018-09-05T10:00:46.550Z,102003.97
2018-09-05T10:03:19.883Z,102005.40
2018-09-05T10:05:53.113Z,102001.73
2018-09-05T10:08:26.465Z,102010.59
2018-09-05T10:10:59.769Z,102011.20
2018-09-05T10:13:33.064Z,102012.86
2018-09-05T10:16:06.464Z,102010.81
2018-09-05T10:18:37.195Z,102006.85
2018-09-05T10:21:04.973Z,102005.60
2018-09-05T10:23:32.735Z,101998.63
2018-09-05T10:26:00.515Z,101994.34
2018-09-05T10:28:28.218Z,101996.94
2018-09-05T10:30:55.939Z,101997.64
2018-09-05T10:33:23.652Z,101996.64
2018-09-05T10:35:51.421Z,102002.34
2018-09-05T10:38:19.176Z,102002.72
2018-09-05T10:40:46.889Z,101994.98
2018-09-05T10:43:14.603Z,102000.67
2018-09-05T10:45:42.372Z,101993.46
2018-09-05T10:48:10.527Z,101993.02
2018-09-05T10:50:38.264Z,101991.44
2018-09-05T10:53:06.432Z,101991.77
2018-09-05T10:55:34.164Z,101991.17
2018-09-05T10:58:01.889Z,101987.55
2018-09-05T11:00:29.672Z,101986.45
2018-09-05T11:02:57.372Z,101993.81
2018-09-05T11:05:25.116Z,101992.09
2018-09-05T11:07:52.850Z,101993.88
2018-09-05T11:10:20.677Z,101985.47
2018-09-05T11:12:48.392Z,101985.94
2018-09-05T11:15:16.152Z,101987.06
2018-09-05T11:17:43.889Z,101986.48
2018-09-05T11:20:12.232Z,101991.66
2018-09-05T11:22:40.340Z,101987.96
2018-09-05T11:25:08.079Z,101991.62
2018-09-05T11:27:35.923Z,101989.31
2018-09-05T11:30:03.807Z,101988.95
2018-09-05T11:32:31.525Z,101995.08
2018-09-05T11:34:59.321Z,101994.13
2018-09-05T11:37:27.239Z,101998.44
2018-09-05T11:39:54.975Z,102001.45
2018-09-05T11:42:22.688Z,101996.83
2018-09-05T11:44:50.445Z,101991.73
2018-09-05T11:47:18.174Z,101997.77
2018-09-05T11:49:45.901Z,101997.94
2018-09-05T11:52:13.667Z,102002.20
2018-09-05T11:54:41.397Z,101996.44
2018-09-05T11:57:09.165Z,101995.77
2018-09-05T11:59:37.038Z,101986.81
2018-09-05T12:02:04.975Z,101993.61
2018-09-05T12:04:32.924Z,101994.25
2018-09-05T12:07:00.756Z,101978.37
2018-09-05T12:09:28.461Z,101981.83
2018-09-05T12:11:56.234Z,101982.39
2018-09-05T12:14:24.037Z,101995.52
2018-09-05T12:16:51.847Z,101993.50
2018-09-05T12:19:19.591Z,101984.89
2018-09-05T12:21:47.292Z,101990.56
2018-09-05T12:24:15.053Z,101987.80
2018-09-05T12:26:42.769Z,101985.17
2018-09-05T12:29:11.996Z,101981.33
2018-09-05T12:31:40.218Z,101989.85
2018-09-05T12:34:07.942Z,101990.88
2018-09-05T12:36:35.803Z,101988.06
2018-09-05T12:39:05.452Z,101987.30
2018-09-05T12:41:33.148Z,101988.59
2018-09-05T12:44:00.952Z,101989.05
2018-09-05T12:46:28.668Z,101979.98
2018-09-05T12:48:56.384Z,101983.70
2018-09-05T12:51:24.245Z,101983.91
2018-09-05T12:53:51.988Z,101978.46
2018-09-05T12:56:19.700Z,101985.47
2018-09-05T12:58:47.464Z,101985.44
2018-09-05T13:01:15.297Z,101985.91
2018-09-05T13:03:43.131Z,101988.98
2018-09-05T13:06:10.849Z,101982.14
2018-09-05T13:08:38.571Z,101975.66
2018-09-05T13:11:06.304Z,101974.78
2018-09-05T13:13:40.868Z,101980.33
2018-09-05T13:16:08.572Z,101981.42
2018-09-05T13:18:36.267Z,101982.97
2018-09-05T13:21:04.126Z,101980.48
2018-09-05T13:23:31.883Z,101990.23
2018-09-05T13:25:59.627Z,101993.12
2018-09-05T13:28:27.329Z,101986.45
2018-09-05T13:30:55.034Z,101991.95
2018-09-05T13:33:22.770Z,101987.80
2018-09-05T13:35:50.767Z,101998.39
2018-09-05T13:38:18.471Z,101995.25
2018-09-05T13:40:46.277Z,101998.38
2018-09-05T13:43:14.017Z,101992.67
2018-09-05T13:45:41.952Z,101995.91
2018-09-05T13:48:09.732Z,101995.29
2018-09-05T13:50:37.517Z,101995.83
2018-09-05T13:53:05.649Z,101999.04
2018-09-05T13:55:33.389Z,101994.27
2018-09-05T13:58:01.111Z,102002.12
2018-09-05T14:00:28.994Z,102001.30
2018-09-05T14:02:56.715Z,102000.72
2018-09-05T14:05:24.480Z,101996.44
2018-09-05T14:07:52.252Z,102006.44
2018-09-05T14:10:19.972Z,101999.80
2018-09-05T14:12:47.755Z,102002.66
2018-09-05T14:15:15.465Z,101997.73
2018-09-05T14:17:43.293Z,102003.84
2018-09-05T14:20:11.120Z,102000.69
2018-09-05T14:22:38.873Z,101998.55
2018-09-05T14:25:06.740Z,101999.06
2018-09-05T14:27:34.546Z,101999.39
2018-09-05T14:30:02.352Z,101991.47
2018-09-05T14:32:30.091Z,101992.59
2018-09-05T14:34:57.816Z,102001.92
2018-09-05T14:37:25.588Z,102002.85
2018-09-05T14:39:53.355Z,102003.32
2018-09-05T14:42:21.108Z,102004.41
2018-09-05T14:44:48.816Z,102011.74
2018-09-05T14:47:16.535Z,102013.75
2018-09-05T14:49:44.276Z,102013.62
2018-09-05T14:52:12.030Z,102014.22
2018-09-05T14:54:39.769Z,102014.06
2018-09-05T14:57:07.585Z,102015.32
2018-09-05T14:59:35.310Z,102013.81
2018-09-05T15:02:03.181Z,102013.27
2018-09-05T15:04:30.886Z,102004.44
2018-09-05T15:06:58.637Z,102024.05
2018-09-05T15:09:26.392Z,102016.33
2018-09-05T15:11:54.194Z,102004.61
2018-09-05T15:14:21.869Z,102015.22
2018-09-05T15:16:49.578Z,102013.84
2018-09-05T15:19:17.293Z,102006.80
2018-09-05T15:21:45.133Z,102010.09
2018-09-05T15:24:12.892Z,102017.23
2018-09-05T15:26:40.629Z,102020.13
2018-09-05T15:29:08.378Z,102017.75
2018-09-05T15:31:36.080Z,102013.00
2018-09-05T15:34:03.797Z,102016.80
2018-09-05T15:36:31.524Z,102012.16
2018-09-05T15:38:59.255Z,102021.86
2018-09-05T15:41:26.984Z,102018.30
2018-09-05T15:43:54.740Z,102022.27
2018-09-05T15:46:22.465Z,102021.19
2018-09-05T15:48:50.162Z,102016.08
2018-09-05T15:51:17.861Z,102021.30
2018-09-05T15:53:45.547Z,102021.44
2018-09-05T15:56:13.276Z,102021.02
2018-09-05T15:58:41.017Z,102024.24
2018-09-05T16:01:08.696Z,102021.16
2018-09-05T16:03:36.428Z,102019.56
2018-09-05T16:06:04.270Z,102024.58
2018-09-05T16:08:32.087Z,102024.22
2018-09-05T16:10:59.804Z,102020.73
2018-09-05T16:13:27.474Z,102013.32
2018-09-05T16:15:55.171Z,102016.63
2018-09-05T16:18:23.055Z,102019.30
2018-09-05T16:20:50.779Z,102021.47
2018-09-05T16:23:18.466Z,102025.15
2018-09-05T16:25:46.219Z,102018.06
2018-09-05T16:28:13.923Z,102029.70
2018-09-05T16:30:41.767Z,102023.30
2018-09-05T16:33:09.481Z,102027.95
2018-09-05T16:35:37.195Z,102023.67
2018-09-05T16:38:05.024Z,102025.69
2018-09-05T16:40:32.721Z,102025.27
2018-09-05T16:43:00.412Z,102024.99
2018-09-05T16:45:28.173Z,102024.38
2018-09-05T16:47:55.864Z,102024.78
2018-09-05T16:50:24.069Z,102029.63
2018-09-05T16:52:51.756Z,102027.48
2018-09-05T16:55:19.470Z,102021.91
2018-09-05T16:57:47.167Z,102027.36
2018-09-05T17:00:14.837Z,102026.08
2018-09-05T17:02:42.591Z,102023.66
2018-09-05T17:05:10.293Z,102021.21
2018-09-05T17:07:38.004Z,102028.95
2018-09-05T17:10:05.895Z,102031.75
2018-09-05T17:12:33.576Z,102030.66
2018-09-05T17:15:01.248Z,102040.09
2018-09-05T17:17:28.969Z,102038.32
2018-09-05T17:19:56.746Z,102042.02
2018-09-05T17:22:24.484Z,102041.04
2018-09-05T17:24:52.301Z,102036.14
2018-09-05T17:27:20.135Z,102048.34
2018-09-05T17:29:47.880Z,102053.06
2018-09-05T17:32:15.553Z,102049.86
2018-09-05T17:34:43.346Z,102039.52
2018-09-05T17:37:11.195Z,102044.67
2018-09-05T17:39:38.878Z,102041.88
2018-09-05T17:42:06.580Z,102039.83
2018-09-05T17:44:34.314Z,102042.35
2018-09-05T17:47:02.006Z,102048.23
2018-09-05T17:49:29.725Z,102049.00
2018-09-05T17:51:57.465Z,102051.10
2018-09-05T17:54:25.252Z,102050.86
2018-09-05T17:56:52.961Z,102061.23
2018-09-05T17:59:20.708Z,102061.92
2018-09-05T18:01:48.508Z,102058.27
2018-09-05T18:04:16.189Z,102055.00
2018-09-05T18:06:43.888Z,102057.02
2018-09-05T18:09:11.906Z,102055.45
2018-09-05T18:11:39.611Z,102064.52
2018-09-05T18:14:07.352Z,102063.02
2018-09-05T18:16:35.057Z,102068.70
2018-09-05T18:19:02.911Z,102060.26
2018-09-05T18:21:30.690Z,102071.69
2018-09-05T18:23:58.467Z,102068.02
2018-09-05T18:26:26.211Z,102066.48
2018-09-05T18:28:53.904Z,102065.27
2018-09-05T18:31:21.635Z,102077.40
2018-09-05T18:33:49.443Z,102068.84
2018-09-05T18:36:17.117Z,102074.36
2018-09-05T18:38:44.848Z,102073.36
2018-09-05T18:41:12.640Z,102074.84
2018-09-05T18:43:40.401Z,102077.70
2018-09-05T18:46:08.192Z,102074.93
2018-09-05T18:48:35.896Z,102075.16
2018-09-05T18:51:03.723Z,102080.25
2018-09-05T18:53:31.479Z,102077.33
2018-09-05T18:55:59.267Z,102084.98
2018-09-05T18:58:26.972Z,102083.44
2018-09-05T19:00:54.882Z,102091.89
2018-09-05T19:03:22.649Z,102084.16
2018-09-05T19:05:50.444Z,102081.30
2018-09-05T19:08:18.301Z,102084.00
2018-09-05T19:10:46.017Z,102081.89
2018-09-05T19:13:13.716Z,102083.28
2018-09-05T19:15:41.451Z,102078.63
2018-09-05T19:18:09.151Z,102076.63
2018-09-05T19:20:36.931Z,102078.22
2018-09-05T19:23:04.688Z,102077.59
2018-09-05T19:25:32.379Z,102074.25
2018-09-05T19:28:00.068Z,102071.65
2018-09-05T19:30:27.798Z,102073.02
2018-09-05T19:32:55.473Z,102075.67
2018-09-05T19:35:23.185Z,102078.42
2018-09-05T19:37:50.991Z,102073.20
2018-09-05T19:40:18.663Z,102068.44
2018-09-05T19:42:46.375Z,102069.86
2018-09-05T19:45:14.076Z,102073.02
2018-09-05T19:47:42.684Z,102077.15
2018-09-05T19:50:10.415Z,102070.22
2018-09-05T19:52:38.142Z,102069.95
2018-09-05T19:55:05.845Z,102069.66
2018-09-05T19:57:33.530Z,102070.22
2018-09-05T20:00:01.256Z,102071.20
2018-09-05T20:02:29.015Z,102069.92
2018-09-05T20:04:56.759Z,102074.88
2018-09-05T20:07:24.535Z,102075.45
2018-09-05T20:09:52.256Z,102073.36
2018-09-05T20:12:19.996Z,102073.94
2018-09-05T20:14:47.680Z,102069.59
2018-09-05T20:17:15.391Z,102074.56
2018-09-05T20:19:43.138Z,102064.94
2018-09-05T20:22:11.407Z,102067.62
2018-09-05T20:24:39.223Z,102066.30
2018-09-05T20:27:07.349Z,102068.55
2018-09-05T20:29:35.168Z,102069.51
2018-09-05T20:32:02.913Z,102063.44
2018-09-05T20:34:30.612Z,102064.41
2018-09-05T20:36:58.392Z,102058.81
2018-09-05T20:39:26.097Z,102053.63
2018-09-05T20:41:54.014Z,102054.09
2018-09-05T20:44:21.698Z,102051.02
2018-09-05T20:46:49.404Z,102052.86
2018-09-05T20:49:17.153Z,102046.27
2018-09-05T20:51:44.868Z,102049.78
2018-09-05T20:54:12.600Z,102043.63
2018-09-05T20:56:40.288Z,102043.23
2018-09-05T20:59:08.039Z,102038.36
2018-09-05T21:01:35.717Z,102050.18
2018-09-05T21:04:03.427Z,102052.66
2018-09-05T21:06:31.153Z,102059.65
2018-09-05T21:08:58.871Z,102057.02
2018-09-05T21:11:26.573Z,102053.94
2018-09-05T21:13:54.285Z,102055.41
2018-09-05T21:16:22.119Z,102060.36
2018-09-05T21:18:49.825Z,102057.36
2018-09-05T21:21:17.524Z,102066.59
2018-09-05T21:23:45.263Z,102068.38
2018-09-05T21:26:12.939Z,102069.30
2018-09-05T21:28:40.639Z,102069.40
2018-09-05T21:31:08.360Z,102069.50
2018-09-05T21:33:36.029Z,102063.42
2018-09-05T21:36:03.919Z,102062.16
2018-09-05T21:38:31.594Z,102059.59
2018-09-05T21:40:59.284Z,102061.78
2018-09-05T21:43:27.056Z,102064.86
2018-09-05T21:45:54.785Z,102063.09
2018-09-05T21:48:22.551Z,102069.30
2018-09-05T21:50:50.308Z,102067.58
2018-09-05T21:53:18.020Z,102072.90
2018-09-05T21:55:45.692Z,102065.91
2018-09-05T21:58:13.395Z,102065.95
2018-09-05T22:00:41.190Z,102062.06
2018-09-05T22:03:08.860Z,102053.34
2018-09-05T22:05:36.530Z,102052.92
2018-09-05T22:08:04.251Z,102051.63
2018-09-05T22:10:31.939Z,102059.55
2018-09-05T22:12:59.620Z,102059.10
2018-09-05T22:15:32.149Z,102058.69
2018-09-05T22:17:59.812Z,102058.25
2018-09-05T22:20:27.495Z,102055.62
2018-09-05T22:22:55.184Z,102051.67
2018-09-05T22:25:22.856Z,102055.65
2018-09-05T22:27:50.536Z,102049.06
2018-09-05T22:30:18.257Z,102053.02
2018-09-05T22:32:45.948Z,102052.13
2018-09-05T22:35:13.669Z,102050.41
2018-09-05T22:37:41.424Z,102046.05
2018-09-05T22:40:09.096Z,102055.69
2018-09-05T22:42:42.053Z,102052.17
2018-09-05T22:45:21.112Z,102049.55
2018-09-05T22:48:09.420Z,102047.83
2018-09-05T22:52:05.416Z,102039.92
2018-09-05T22:55:52.804Z,102036.88
2018-09-05T22:58:36.627Z,102030.77
2018-09-05T23:01:25.173Z,102040.84
2018-09-05T23:05:05.003Z,102039.53
2018-09-05T23:07:45.353Z,102031.25
2018-09-05T23:10:24.403Z,102034.75
2018-09-05T23:13:03.360Z,102033.41
2018-09-05T23:15:42.329Z,102029.06
2018-09-05T23:18:21.317Z,102037.39
2018-09-05T23:21:01.337Z,102037.36
2018-09-05T23:23:40.447Z,102035.61
2018-09-05T23:26:08.591Z,102032.12
2018-09-05T23:28:36.888Z,102036.04
2018-09-05T23:31:04.668Z,102040.86
2018-09-05T23:33:32.462Z,102044.38
2018-09-05T23:36:00.140Z,102042.64
2018-09-05T23:38:27.897Z,102043.51
2018-09-05T23:40:55.581Z,102038.72
2018-09-05T23:43:23.244Z,102038.72
2018-09-05T23:45:51.030Z,102041.79
2018-09-05T23:48:18.713Z,102035.64
2018-09-05T23:50:46.396Z,102030.84
2018-09-05T23:53:14.094Z,102035.66
2018-09-05T23:55:41.776Z,102032.16
2018-09-05T23:58:09.491Z,102037.88
